Time;durP1;ratioP1;P1;durP2;ratioP2;P2;SDS_P1;SDS_P2;PMS_P1;PMS_P2;Temp;Humidity;BMP_temperature;BMP_pressure;BME280_temperature;BME280_humidity;BME280_pressure;Samples;Min_cycle;Max_cycle;Signal;HPM_P1;HPM_P2
2021/08/23 00:06:34;;;;;;;7.60;4.25;;;17.10;99.90;;;;;;6700351;88;20199;-75
2021/08/23 00:16:35;;;;;;;7.70;4.15;;;17.10;99.90;;;;;;6690689;88;20196;-75
2021/08/23 00:26:35;;;;;;;4.77;3.80;;;16.80;99.90;;;;;;6691490;88;20195;-75
2021/08/23 00:36:36;;;;;;;5.70;3.83;;;16.90;99.90;;;;;;6693990;88;20967;-76
2021/08/23 00:46:37;;;;;;;5.97;4.10;;;16.60;99.90;;;;;;6691865;88;20220;-75
2021/08/23 00:56:37;;;;;;;6.62;4.40;;;16.60;99.90;;;;;;6691803;88;20166;-75
2021/08/23 01:06:38;;;;;;;6.60;3.83;;;16.40;99.90;;;;;;6686888;88;20660;-76
2021/08/23 01:16:39;;;;;;;6.50;4.40;;;16.30;99.90;;;;;;6692505;88;20191;-74
2021/08/23 01:26:46;;;;;;;5.55;3.62;;;16.30;99.90;;;;;;6691648;88;20189;-75
2021/08/23 01:36:47;;;;;;;5.72;4.28;;;16.40;99.90;;;;;;6691424;88;20277;-75
2021/08/23 01:46:48;;;;;;;5.72;4.20;;;16.50;99.90;;;;;;6690299;88;20764;-75
2021/08/23 01:56:49;;;;;;;6.28;4.40;;;16.30;99.90;;;;;;6694470;88;20205;-75
2021/08/23 02:06:49;;;;;;;6.85;3.80;;;16.40;99.90;;;;;;6694112;88;20191;-75
2021/08/23 02:16:50;;;;;;;6.37;3.55;;;16.60;99.90;;;;;;6696485;88;20190;-74
2021/08/23 02:26:51;;;;;;;9.05;3.90;;;16.50;99.90;;;;;;6690337;88;20257;-74
2021/08/23 02:36:51;;;;;;;6.10;3.40;;;16.60;99.90;;;;;;6695693;88;20197;-75
2021/08/23 02:46:52;;;;;;;4.93;3.70;;;16.70;99.90;;;;;;6693564;88;20202;-75
2021/08/23 02:56:52;;;;;;;5.30;3.90;;;16.70;99.90;;;;;;6692135;88;20194;-75
2021/08/23 03:06:53;;;;;;;5.53;3.78;;;16.60;99.90;;;;;;6694790;88;20202;-75
2021/08/23 03:16:53;;;;;;;4.40;3.40;;;16.60;99.90;;;;;;6696021;88;20220;-75
2021/08/23 03:26:54;;;;;;;5.05;3.53;;;16.50;99.90;;;;;;6694316;88;20203;-75
2021/08/23 03:36:56;;;;;;;5.72;3.78;;;16.60;99.90;;;;;;6694862;88;20222;-76
2021/08/23 03:46:57;;;;;;;5.87;3.87;;;16.50;99.90;;;;;;6691828;88;20182;-75
2021/08/23 03:56:57;;;;;;;5.50;3.50;;;16.30;99.90;;;;;;6691367;88;20213;-76
2021/08/23 04:06:58;;;;;;;5.82;3.42;;;16.40;99.90;;;;;;6693062;88;20190;-75
2021/08/23 04:16:58;;;;;;;5.97;3.67;;;16.50;99.90;;;;;;6693681;88;20207;-75
2021/08/23 04:26:59;;;;;;;7.07;4.07;;;16.50;99.90;;;;;;6691822;88;20359;-74
2021/08/23 04:37:03;;;;;;;5.62;3.85;;;16.50;99.90;;;;;;6692653;88;20235;-74
2021/08/23 04:47:04;;;;;;;5.97;4.07;;;16.60;99.90;;;;;;6692307;88;20199;-76
2021/08/23 04:57:04;;;;;;;7.30;4.50;;;16.60;99.90;;;;;;6695994;88;20249;-75
2021/08/23 05:07:05;;;;;;;6.95;4.65;;;16.90;99.90;;;;;;6691830;88;20195;-75
2021/08/23 05:17:05;;;;;;;7.12;4.72;;;16.80;99.90;;;;;;6695137;88;20183;-75
2021/08/23 05:27:06;;;;;;;7.20;4.55;;;16.80;99.90;;;;;;6692810;88;20190;-75
2021/08/23 05:37:06;;;;;;;6.78;4.55;;;16.80;99.90;;;;;;6694602;88;20219;-75
2021/08/23 05:47:07;;;;;;;5.57;3.92;;;17.10;99.90;;;;;;6690040;88;20199;-76
2021/08/23 05:57:08;;;;;;;8.93;4.60;;;17.10;99.90;;;;;;6691442;88;20746;-77
2021/08/23 06:07:08;;;;;;;7.45;4.10;;;17.40;99.90;;;;;;6691921;88;20210;-75
2021/08/23 06:17:09;;;;;;;5.12;3.53;;;17.60;99.90;;;;;;6692953;88;20171;-76
2021/08/23 06:27:09;;;;;;;4.63;3.57;;;17.90;99.90;;;;;;6696131;88;20265;-75
2021/08/23 06:37:10;;;;;;;4.40;3.20;;;18.40;99.90;;;;;;6689182;88;20513;-74
2021/08/23 06:47:10;;;;;;;5.15;3.35;;;18.90;99.90;;;;;;6685719;88;20253;-76
2021/08/23 06:57:11;;;;;;;5.40;3.70;;;19.40;99.90;;;;;;6685481;88;20277;-76
2021/08/23 07:07:11;;;;;;;8.88;6.07;;;20.00;99.90;;;;;;6685020;88;20674;-76
2021/08/23 07:17:12;;;;;;;9.25;6.30;;;20.90;99.90;;;;;;6687413;88;20191;-76
2021/08/23 07:27:13;;;;;;;10.80;8.18;;;20.90;99.90;;;;;;6684693;88;20649;-75
2021/08/23 07:37:14;;;;;;;11.40;8.60;;;21.30;99.90;;;;;;6684645;88;20230;-75
2021/08/23 07:47:15;;;;;;;11.27;8.43;;;21.80;99.90;;;;;;6688447;88;20194;-74
2021/08/23 07:57:15;;;;;;;11.38;8.68;;;21.50;99.90;;;;;;6686166;88;20772;-75
2021/08/23 08:07:17;;;;;;;14.73;9.70;;;20.70;99.90;;;;;;6683990;88;20972;-75
2021/08/23 08:17:17;;;;;;;14.25;9.55;;;20.60;99.90;;;;;;6681340;88;20237;-74
2021/08/23 08:27:18;;;;;;;15.60;10.00;;;20.50;99.90;;;;;;6689786;88;20305;-74
2021/08/23 08:37:19;;;;;;;13.20;9.55;;;20.10;99.90;;;;;;6684927;88;20187;-75
2021/08/23 08:47:19;;;;;;;13.07;9.48;;;20.40;99.90;;;;;;6686521;88;20733;-76
2021/08/23 08:57:21;;;;;;;13.18;9.68;;;20.80;99.90;;;;;;6689816;88;20206;-75
2021/08/23 09:07:21;;;;;;;16.08;10.25;;;20.50;99.90;;;;;;6694269;88;20207;-75
2021/08/23 09:17:24;;;;;;;15.07;10.00;;;20.30;99.90;;;;;;6692076;88;20358;-75
2021/08/23 09:27:32;;;;;;;16.12;10.93;;;20.20;99.90;;;;;;6684815;88;20598;-76
2021/08/23 09:37:33;;;;;;;19.10;11.23;;;19.90;99.90;;;;;;6685174;88;20178;-76
2021/08/23 09:47:33;;;;;;;18.50;12.55;;;19.90;99.90;;;;;;6687902;88;20186;-75
2021/08/23 09:57:35;;;;;;;18.87;11.95;;;20.20;99.90;;;;;;6687846;88;20237;-75
2021/08/23 10:07:35;;;;;;;18.95;11.82;;;20.80;99.90;;;;;;6695286;88;20265;-75
2021/08/23 10:17:37;;;;;;;17.73;12.20;;;21.00;99.90;;;;;;6697060;88;20191;-75
2021/08/23 10:27:41;;;;;;;18.40;11.57;;;20.90;99.90;;;;;;6690154;88;20702;-76
2021/08/23 10:37:43;;;;;;;20.43;12.87;;;20.50;99.90;;;;;;6690316;88;20256;-75
2021/08/23 10:47:45;;;;;;;22.45;13.90;;;19.20;99.90;;;;;;6688729;88;20310;-76
2021/08/23 10:57:46;;;;;;;20.65;13.15;;;19.00;99.90;;;;;;6688440;88;20191;-75
2021/08/23 11:07:48;;;;;;;15.68;10.38;;;20.00;99.90;;;;;;6685263;88;20241;-75
2021/08/23 11:17:56;;;;;;;13.98;8.60;;;20.90;99.90;;;;;;6685622;88;20182;-75
2021/08/23 11:27:57;;;;;;;8.00;5.93;;;21.10;99.90;;;;;;6687634;88;20245;-76
2021/08/23 11:38:01;;;;;;;7.30;4.80;;;20.90;99.90;;;;;;6689192;88;20299;-75
2021/08/23 11:48:02;;;;;;;5.50;4.50;;;21.40;99.90;;;;;;6685617;88;20284;-75
2021/08/23 11:58:20;;;;;;;6.68;4.70;;;22.00;99.90;;;;;;6683688;88;20618;-75
2021/08/23 12:08:28;;;;;;;7.15;4.40;;;22.00;99.90;;;;;;6686728;88;20204;-74
2021/08/23 12:18:39;;;;;;;6.30;4.60;;;21.80;99.90;;;;;;6686497;88;20171;-74
2021/08/23 12:28:50;;;;;;;4.97;4.20;;;22.20;99.90;;;;;;6687060;88;20336;-75
2021/08/23 12:38:51;;;;;;;6.87;4.85;;;23.30;99.90;;;;;;6684722;88;20211;-74
2021/08/23 12:48:51;;;;;;;6.60;5.00;;;23.00;99.90;;;;;;6685107;88;20186;-74
2021/08/23 12:58:53;;;;;;;6.00;4.47;;;23.50;99.90;;;;;;6687528;88;20677;-75
2021/08/23 13:08:54;;;;;;;7.87;5.00;;;24.10;99.90;;;;;;6686451;88;20634;-74
2021/08/23 13:18:54;;;;;;;8.70;5.82;;;23.30;99.90;;;;;;6685189;88;20652;-74
2021/08/23 13:28:56;;;;;;;8.68;6.25;;;22.80;99.90;;;;;;6683991;88;20225;-75
2021/08/23 13:38:56;;;;;;;8.98;6.47;;;22.30;99.90;;;;;;6688583;88;20354;-75
2021/08/23 13:48:58;;;;;;;9.70;5.93;;;22.10;99.90;;;;;;6691836;88;20292;-75
2021/08/23 13:58:59;;;;;;;7.65;6.20;;;21.90;99.90;;;;;;6688311;88;20186;-75
2021/08/23 14:09:00;;;;;;;9.85;6.55;;;21.90;99.90;;;;;;6685556;88;20817;-75
2021/08/23 14:19:02;;;;;;;8.93;6.37;;;21.90;99.90;;;;;;6687971;88;20183;-75
2021/08/23 14:29:03;;;;;;;7.12;5.55;;;22.60;99.90;;;;;;6689310;88;20277;-74
2021/08/23 14:39:04;;;;;;;8.98;6.22;;;23.40;99.90;;;;;;6686461;88;20370;-75
2021/08/23 14:49:06;;;;;;;7.72;6.30;;;23.40;99.90;;;;;;6686886;88;20216;-74
2021/08/23 14:59:07;;;;;;;8.15;5.82;;;23.30;99.90;;;;;;6687415;88;20297;-75
2021/08/23 15:09:07;;;;;;;7.32;5.45;;;23.00;99.90;;;;;;6690005;88;20312;-75
2021/08/23 15:19:08;;;;;;;6.93;5.10;;;22.30;99.90;;;;;;6687098;88;20214;-75
2021/08/23 15:29:08;;;;;;;6.97;5.53;;;22.20;99.90;;;;;;6686326;88;20751;-74
2021/08/23 15:39:09;;;;;;;6.85;5.40;;;21.80;99.90;;;;;;6685621;88;20190;-74
2021/08/23 15:49:09;;;;;;;6.87;5.55;;;21.80;99.90;;;;;;6688808;88;20207;-74
2021/08/23 15:59:10;;;;;;;7.63;5.43;;;21.90;99.90;;;;;;6684258;88;20178;-75
2021/08/23 16:09:11;;;;;;;7.72;5.60;;;21.80;99.90;;;;;;6681545;88;20207;-75
2021/08/23 16:19:11;;;;;;;9.52;5.43;;;21.60;99.90;;;;;;6687965;88;20249;-76
2021/08/23 16:29:13;;;;;;;9.38;4.57;;;21.70;99.90;;;;;;6688647;88;20282;-76
2021/08/23 16:39:15;;;;;;;7.05;4.90;;;21.60;99.90;;;;;;6698413;88;20969;-77
2021/08/23 16:49:16;;;;;;;6.18;4.55;;;21.60;99.90;;;;;;6693236;88;20190;-76
2021/08/23 16:59:16;;;;;;;6.87;4.80;;;21.50;99.90;;;;;;6701834;88;20193;-74
2021/08/23 17:09:17;;;;;;;6.00;4.50;;;21.60;99.90;;;;;;6697467;88;20207;-77
2021/08/23 17:19:17;;;;;;;6.32;4.68;;;21.30;99.90;;;;;;6693020;88;20723;-76
2021/08/23 17:29:18;;;;;;;6.22;4.87;;;21.00;99.90;;;;;;6695518;88;20240;-76
2021/08/23 17:39:19;;;;;;;7.67;4.67;;;20.80;99.90;;;;;;6693089;88;20380;-76
2021/08/23 17:49:19;;;;;;;6.03;4.62;;;20.60;99.90;;;;;;6689752;88;20543;-75
2021/08/23 17:59:20;;;;;;;7.20;5.60;;;20.50;99.90;;;;;;6695261;88;20309;-75
2021/08/23 18:09:20;;;;;;;7.93;5.35;;;20.30;99.90;;;;;;6703602;88;20577;-76
2021/08/23 18:19:21;;;;;;;6.30;5.12;;;20.10;99.90;;;;;;6698747;88;20170;-75
2021/08/23 18:29:21;;;;;;;8.45;5.70;;;19.80;99.90;;;;;;6709840;88;20303;-76
2021/08/23 18:39:22;;;;;;;8.30;6.23;;;19.50;99.90;;;;;;6690058;88;20233;-76
2021/08/23 18:49:22;;;;;;;13.25;7.95;;;19.20;99.90;;;;;;6691917;88;20703;-76
2021/08/23 18:59:23;;;;;;;10.27;6.85;;;19.20;99.90;;;;;;6690815;88;20276;-76
2021/08/23 19:09:24;;;;;;;8.43;6.37;;;19.20;99.90;;;;;;6688266;88;20207;-76
2021/08/23 19:19:25;;;;;;;9.63;7.25;;;19.10;99.90;;;;;;6691201;88;20658;-77
2021/08/23 19:29:26;;;;;;;10.50;6.95;;;18.70;99.90;;;;;;6695188;77;20287;-76
2021/08/23 19:39:26;;;;;;;8.98;7.60;;;18.50;99.90;;;;;;6659277;89;20180;-76
2021/08/23 19:49:27;;;;;;;11.07;7.53;;;18.20;99.90;;;;;;6643386;89;20724;-76
2021/08/23 19:59:30;;;;;;;11.65;8.07;;;18.00;99.90;;;;;;6642554;89;20826;-76
2021/08/23 20:09:31;;;;;;;12.55;8.25;;;17.90;99.90;;;;;;6647170;89;20720;-76
2021/08/23 20:19:32;;;;;;;12.63;8.93;;;17.70;99.90;;;;;;6647747;89;20582;-76
2021/08/23 20:29:32;;;;;;;12.20;8.52;;;17.50;99.90;;;;;;6649183;88;20220;-77
2021/08/23 20:39:33;;;;;;;13.00;9.35;;;17.50;99.90;;;;;;6678187;88;20352;-76
2021/08/23 20:49:38;;;;;;;13.30;8.80;;;17.30;99.90;;;;;;6675978;89;20197;-77
2021/08/23 20:59:39;;;;;;;12.30;8.57;;;17.20;99.90;;;;;;6680571;88;20325;-77
2021/08/23 21:09:39;;;;;;;11.45;9.07;;;17.10;99.90;;;;;;6682686;89;20261;-77
2021/08/23 21:19:40;;;;;;;12.88;8.88;;;16.80;99.90;;;;;;6679360;89;20222;-77
2021/08/23 21:29:40;;;;;;;12.90;9.13;;;16.70;99.90;;;;;;6673463;88;20221;-76
2021/08/23 21:39:41;;;;;;;11.25;8.57;;;16.70;99.90;;;;;;6671150;88;20787;-77
2021/08/23 21:49:41;;;;;;;13.75;8.88;;;16.60;99.90;;;;;;6680751;89;20649;-77
2021/08/23 21:59:42;;;;;;;13.55;9.00;;;16.50;99.90;;;;;;6685282;88;20225;-77
2021/08/23 22:09:42;;;;;;;13.02;9.27;;;16.30;99.90;;;;;;6679633;88;20269;-77
2021/08/23 22:19:43;;;;;;;13.37;9.27;;;16.20;99.90;;;;;;6672367;88;20258;-78
2021/08/23 22:29:44;;;;;;;10.63;8.40;;;16.00;99.90;;;;;;6675787;88;21092;-78
2021/08/23 22:39:45;;;;;;;13.02;9.35;;;15.80;99.90;;;;;;6677450;88;20321;-78
2021/08/23 22:49:45;;;;;;;12.45;9.48;;;15.70;99.90;;;;;;6676465;88;20244;-78
2021/08/23 22:59:47;;;;;;;15.10;10.65;;;15.50;99.90;;;;;;6682917;88;20203;-77
2021/08/23 23:09:47;;;;;;;13.35;9.38;;;15.40;99.90;;;;;;6672966;88;20294;-77
2021/08/23 23:19:48;;;;;;;11.45;9.30;;;15.30;99.90;;;;;;6688863;88;20699;-77
2021/08/23 23:29:48;;;;;;;10.82;8.82;;;15.30;99.90;;;;;;6675658;88;20195;-77
2021/08/23 23:39:49;;;;;;;10.40;8.90;;;15.30;99.90;;;;;;6684927;88;20200;-77
2021/08/23 23:49:49;;;;;;;13.65;10.55;;;15.20;99.90;;;;;;6681810;88;20195;-77
2021/08/23 23:59:50;;;;;;;14.02;9.30;;;15.00;99.90;;;;;;6677281;89;20308;-77
